Time;durP1;ratioP1;P1;durP2;ratioP2;P2;SDS_P1;SDS_P2;PMS_P1;PMS_P2;Temp;Humidity;BMP_temperature;BMP_pressure;BME280_temperature;BME280_humidity;BME280_pressure;Samples;Min_cycle;Max_cycle;Signal;HPM_P1;HPM_P2
2023/12/26 00:01:47;;;;;;;13.63;5.38;;;;;;;-7.50;81.97;100573.28;5050503;28;20094;-66
2023/12/26 00:04:17;;;;;;;10.27;5.07;;;;;;;-7.55;81.45;100564.53;5060044;28;20052;-65
2023/12/26 00:06:49;;;;;;;10.15;5.47;;;;;;;-7.33;81.25;100581.06;5049900;28;20051;-65
2023/12/26 00:09:21;;;;;;;11.20;5.70;;;;;;;-7.37;80.08;100570.69;5060027;28;20052;-64
2023/12/26 00:11:51;;;;;;;10.75;5.88;;;;;;;-7.41;79.82;100573.84;5047389;28;20135;-65
2023/12/26 00:14:22;;;;;;;12.95;5.10;;;;;;;-7.48;79.11;100576.81;5060168;28;20808;-63
2023/12/26 00:16:52;;;;;;;12.68;6.03;;;;;;;-7.60;78.77;100568.44;5035252;28;20087;-63
2023/12/26 00:19:23;;;;;;;12.52;5.60;;;;;;;-7.49;79.33;100569.97;5040433;28;20392;-65
2023/12/26 00:21:53;;;;;;;13.25;5.68;;;;;;;-7.38;79.30;100574.03;5029751;28;20048;-65
2023/12/26 00:24:25;;;;;;;9.27;6.00;;;;;;;-7.23;79.10;100575.75;5040631;28;20063;-64
2023/12/26 00:26:56;;;;;;;8.27;4.78;;;;;;;-7.20;78.67;100581.00;5030223;28;20053;-62
2023/12/26 00:29:26;;;;;;;12.50;5.20;;;;;;;-7.06;78.70;100582.69;5039873;28;20083;-62
2023/12/26 00:31:57;;;;;;;12.15;5.90;;;;;;;-7.05;78.99;100589.53;5030993;28;20159;-64
2023/12/26 00:34:27;;;;;;;12.95;5.93;;;;;;;-7.00;79.09;100577.09;5040535;28;20044;-65
2023/12/26 00:36:58;;;;;;;10.07;5.65;;;;;;;-6.80;79.18;100583.34;5029925;28;20052;-64
2023/12/26 00:39:30;;;;;;;9.48;5.28;;;;;;;-6.72;78.93;100579.56;5040265;28;20144;-64
2023/12/26 00:42:00;;;;;;;11.48;5.68;;;;;;;-6.77;78.06;100575.88;5028829;28;20058;-63
2023/12/26 00:44:31;;;;;;;12.77;5.78;;;;;;;-6.71;78.33;100586.44;5039832;28;20127;-65
2023/12/26 00:47:01;;;;;;;12.68;5.60;;;;;;;-6.95;78.26;100535.94;5029153;28;20059;-63
2023/12/26 00:49:32;;;;;;;11.40;5.30;;;;;;;-6.60;78.32;100589.56;5040089;28;20176;-66
2023/12/26 00:52:02;;;;;;;9.88;5.00;;;;;;;-6.59;77.74;100574.44;5021973;28;20056;-62
2023/12/26 00:54:36;;;;;;;10.18;5.18;;;;;;;-6.48;77.31;100564.00;5034457;28;20109;-64
2023/12/26 00:57:06;;;;;;;10.15;5.38;;;;;;;-6.37;77.05;100562.91;5039004;28;20048;-65
2023/12/26 00:59:37;;;;;;;14.80;6.07;;;;;;;-6.38;76.75;100556.09;5029727;28;20096;-62
2023/12/26 01:02:08;;;;;;;11.40;6.05;;;;;;;-6.22;75.94;100556.13;5039601;28;20045;-64
2023/12/26 01:04:38;;;;;;;13.43;5.78;;;;;;;-6.05;75.41;100561.28;5029939;28;20488;-61
2023/12/26 01:07:09;;;;;;;10.82;5.85;;;;;;;-5.92;74.67;100564.53;5039144;28;20582;-63
2023/12/26 01:09:41;;;;;;;10.10;4.88;;;;;;;-5.84;73.00;100567.50;5028594;28;20385;-63
2023/12/26 01:12:13;;;;;;;12.27;6.32;;;;;;;-6.63;72.54;100453.03;5038890;28;20534;-63
2023/12/26 01:14:43;;;;;;;16.45;6.93;;;;;;;-5.85;72.44;100560.66;5028663;28;20055;-64
2023/12/26 01:17:14;;;;;;;10.52;5.93;;;;;;;-5.89;71.85;100558.72;5056822;28;20071;-64
2023/12/26 01:19:44;;;;;;;12.60;5.47;;;;;;;-5.98;72.40;100554.06;5048911;28;20050;-61
2023/12/26 01:22:15;;;;;;;9.93;5.53;;;;;;;-5.90;72.10;100551.91;5053570;28;20158;-63
2023/12/26 01:24:47;;;;;;;12.05;5.53;;;;;;;-5.84;71.42;100542.06;5044705;28;20051;-62
2023/12/26 01:27:18;;;;;;;12.40;6.80;;;;;;;-5.75;70.77;100537.44;5058268;28;20067;-65
2023/12/26 01:29:49;;;;;;;11.10;5.88;;;;;;;-5.68;69.78;100534.44;5048119;28;20043;-62
2023/12/26 01:32:20;;;;;;;11.70;6.25;;;;;;;-5.82;69.37;100515.00;5058952;28;20139;-63
2023/12/26 01:34:51;;;;;;;15.68;6.63;;;;;;;-5.81;68.42;100526.94;5049051;28;20052;-64
2023/12/26 01:37:21;;;;;;;11.80;6.07;;;;;;;-5.92;68.54;100520.41;5058605;28;20048;-64
2023/12/26 01:39:53;;;;;;;10.60;5.93;;;;;;;-5.94;68.46;100524.56;5048269;28;20138;-66
2023/12/26 01:42:24;;;;;;;11.48;6.15;;;;;;;-5.98;68.71;100512.47;5054988;28;20056;-65
2023/12/26 01:44:54;;;;;;;10.77;5.95;;;;;;;-5.93;69.17;100514.44;5044633;28;20413;-63
2023/12/26 01:47:25;;;;;;;13.07;6.70;;;;;;;-5.88;69.50;100504.50;5058389;28;20105;-62
2023/12/26 01:49:56;;;;;;;12.20;6.38;;;;;;;-5.83;68.85;100482.72;5048474;28;20067;-63
2023/12/26 01:52:28;;;;;;;15.82;6.88;;;;;;;-6.14;68.20;100409.00;5057601;28;20150;-64
2023/12/26 01:55:01;;;;;;;15.10;6.32;;;;;;;-5.56;67.52;100487.53;5039457;28;20062;-65
2023/12/26 01:57:34;;;;;;;13.68;6.00;;;;;;;-5.61;66.09;100483.88;5057779;28;20054;-65
2023/12/26 02:00:05;;;;;;;12.55;6.68;;;;;;;-5.64;65.50;100480.34;5046454;28;20040;-63
2023/12/26 02:02:36;;;;;;;12.20;6.57;;;;;;;-5.55;65.40;100468.88;5044362;28;20052;-62
2023/12/26 02:05:08;;;;;;;13.63;7.40;;;;;;;-5.45;64.35;100471.09;5058865;28;20716;-65
2023/12/26 02:07:39;;;;;;;13.65;6.88;;;;;;;-5.39;64.07;100465.44;5048455;28;20060;-64
2023/12/26 02:10:11;;;;;;;12.82;7.15;;;;;;;-5.41;63.21;100478.13;5058694;28;20655;-63
2023/12/26 02:12:43;;;;;;;11.60;6.35;;;;;;;-5.57;63.18;100473.03;5048395;28;20681;-65
2023/12/26 02:15:14;;;;;;;14.48;6.90;;;;;;;-5.77;63.95;100469.44;5057806;28;20048;-64
2023/12/26 02:17:46;;;;;;;17.08;7.20;;;;;;;-5.97;64.62;100458.25;5048455;28;20054;-64
2023/12/26 02:20:17;;;;;;;15.82;7.18;;;;;;;-6.26;64.75;100429.63;5057357;28;20139;-61
2023/12/26 02:22:48;;;;;;;19.58;6.63;;;;;;;-6.23;64.88;100451.78;5046011;28;20044;-65
2023/12/26 02:25:20;;;;;;;11.50;5.93;;;;;;;-6.40;65.58;100455.97;5054321;28;20056;-64
2023/12/26 02:27:51;;;;;;;12.13;6.50;;;;;;;-6.53;66.01;100445.13;5044537;28;20055;-65
2023/12/26 02:30:23;;;;;;;13.60;6.82;;;;;;;-6.66;66.11;100445.25;5058464;28;20163;-63
2023/12/26 02:32:56;;;;;;;14.57;6.90;;;;;;;-6.68;66.46;100439.19;5047711;28;20131;-64
2023/12/26 02:35:28;;;;;;;15.63;7.85;;;;;;;-6.54;66.53;100440.84;5057762;28;20048;-64
2023/12/26 02:37:59;;;;;;;13.98;7.50;;;;;;;-6.47;66.39;100439.47;5047369;28;20060;-64
2023/12/26 02:40:31;;;;;;;12.57;7.32;;;;;;;-6.48;66.19;100436.88;5058578;28;20048;-63
2023/12/26 02:43:02;;;;;;;15.80;7.30;;;;;;;-6.58;66.07;100444.00;5043271;28;20182;-65
2023/12/26 02:45:32;;;;;;;12.75;7.43;;;;;;;-6.47;66.43;100438.63;5060581;28;20163;-63
2023/12/26 02:48:03;;;;;;;15.65;8.48;;;;;;;-6.38;65.86;100434.91;5061533;28;20436;-64
2023/12/26 02:50:33;;;;;;;17.67;8.55;;;;;;;-6.39;65.59;100438.25;5050624;28;20048;-64
2023/12/26 02:53:04;;;;;;;15.50;8.43;;;;;;;-6.33;65.81;100428.41;5061749;28;20937;-63
2023/12/26 02:55:36;;;;;;;18.85;8.43;;;;;;;-6.27;65.07;100432.06;5051761;28;20142;-63
2023/12/26 02:58:07;;;;;;;18.75;9.35;;;;;;;-6.27;65.31;100432.94;5061487;28;20380;-65
2023/12/26 03:00:37;;;;;;;14.32;7.88;;;;;;;-6.25;65.16;100415.22;5050547;28;20048;-64
2023/12/26 03:03:08;;;;;;;16.20;8.82;;;;;;;-6.36;64.60;100412.13;5059676;28;20052;-64
2023/12/26 03:05:38;;;;;;;17.58;8.15;;;;;;;-6.52;64.88;100416.34;5046701;28;20056;-64
2023/12/26 03:08:09;;;;;;;18.67;8.73;;;;;;;-6.46;65.25;100409.84;5061163;28;20510;-64
2023/12/26 03:10:41;;;;;;;21.23;9.13;;;;;;;-6.36;65.39;100417.19;5049312;28;20079;-63
2023/12/26 03:13:12;;;;;;;21.30;9.48;;;;;;;-6.24;64.80;100412.78;5061669;28;20087;-65
2023/12/26 03:15:42;;;;;;;22.42;9.43;;;;;;;-6.07;64.25;100406.88;5050746;28;20044;-65
2023/12/26 03:18:13;;;;;;;18.95;9.60;;;;;;;-6.01;63.48;100400.38;5057598;28;20074;-65
2023/12/26 03:20:43;;;;;;;18.92;9.65;;;;;;;-5.98;63.45;100398.88;5050756;28;20048;-63
2023/12/26 03:23:14;;;;;;;20.35;9.65;;;;;;;-5.94;62.23;100403.31;5060970;28;20067;-66
2023/12/26 03:25:46;;;;;;;25.55;10.98;;;;;;;-6.08;61.75;100386.47;5051371;28;20062;-62
2023/12/26 03:28:17;;;;;;;21.55;10.63;;;;;;;-6.04;62.09;100372.22;5060992;28;20138;-64
2023/12/26 03:30:47;;;;;;;19.35;9.00;;;;;;;-6.15;62.26;100372.53;5050509;28;20052;-66
2023/12/26 03:33:18;;;;;;;22.67;10.05;;;;;;;-6.27;62.85;100366.81;5057564;28;20105;-65
2023/12/26 03:35:48;;;;;;;18.40;8.98;;;;;;;-6.33;63.07;100361.41;5047070;28;20044;-64
2023/12/26 03:38:19;;;;;;;17.67;9.32;;;;;;;-6.15;63.64;100357.28;5059320;28;20125;-63
2023/12/26 03:40:51;;;;;;;19.20;9.55;;;;;;;-5.94;63.64;100356.63;5049635;28;20056;-64
2023/12/26 03:43:22;;;;;;;19.13;9.85;;;;;;;-5.82;62.71;100347.03;5057162;28;20702;-65
2023/12/26 03:45:52;;;;;;;19.75;10.30;;;;;;;-5.73;62.61;100352.59;5047399;28;20080;-65
2023/12/26 03:48:23;;;;;;;23.60;10.50;;;;;;;-5.69;62.41;100344.34;5061326;28;20114;-65
2023/12/26 03:50:54;;;;;;;20.02;9.68;;;;;;;-5.73;62.39;100337.34;5050817;28;20110;-66
2023/12/26 03:53:24;;;;;;;19.27;9.98;;;;;;;-5.84;62.19;100333.38;5057181;28;20506;-66
2023/12/26 03:55:56;;;;;;;21.65;10.02;;;;;;;-5.97;62.13;100337.00;5050309;28;20044;-63
2023/12/26 03:58:27;;;;;;;19.10;9.63;;;;;;;-5.90;62.77;100338.16;5057469;28;20079;-63
2023/12/26 04:00:57;;;;;;;17.55;9.82;;;;;;;-5.80;62.90;100345.44;5049943;28;20075;-66
2023/12/26 04:03:28;;;;;;;23.70;10.35;;;;;;;-5.79;62.63;100337.03;5060241;28;20121;-63
2023/12/26 04:05:59;;;;;;;20.33;10.10;;;;;;;-5.83;62.88;100335.13;5049741;28;20048;-65
2023/12/26 04:08:29;;;;;;;23.45;9.90;;;;;;;-6.07;63.11;100320.38;5057778;28;20059;-65
2023/12/26 04:11:01;;;;;;;21.17;9.77;;;;;;;-6.30;63.52;100320.88;5041932;28;20051;-66
2023/12/26 04:13:32;;;;;;;20.13;8.55;;;;;;;-6.45;64.24;100322.63;5059517;28;20131;-64
2023/12/26 04:16:02;;;;;;;21.92;9.98;;;;;;;-6.62;64.37;100317.53;5049023;28;20051;-64
2023/12/26 04:18:33;;;;;;;18.20;9.40;;;;;;;-6.80;64.95;100321.63;5056781;28;20060;-63
2023/12/26 04:21:03;;;;;;;20.05;9.18;;;;;;;-6.97;65.12;100319.03;5057479;28;20052;-66
2023/12/26 04:23:34;;;;;;;20.85;9.45;;;;;;;-7.10;65.59;100324.25;5046470;28;20641;-65
2023/12/26 04:26:07;;;;;;;21.63;9.10;;;;;;;-7.13;65.83;100330.84;5059342;28;20051;-64
2023/12/26 04:28:37;;;;;;;17.13;8.85;;;;;;;-7.03;66.01;100333.09;5050021;28;20079;-66
2023/12/26 04:31:09;;;;;;;19.10;9.23;;;;;;;-6.97;65.91;100329.19;5059856;28;20059;-67
2023/12/26 04:33:40;;;;;;;20.75;10.23;;;;;;;-6.78;66.25;100340.38;5049115;28;20510;-65
2023/12/26 04:36:11;;;;;;;19.02;9.48;;;;;;;-6.54;65.90;100330.63;5059792;28;20088;-64
2023/12/26 04:38:41;;;;;;;21.10;10.50;;;;;;;-6.45;65.45;100335.34;5045935;28;20076;-66
2023/12/26 04:41:14;;;;;;;19.13;9.25;;;;;;;-6.47;65.06;100339.47;5058065;28;20047;-65
2023/12/26 04:43:44;;;;;;;21.45;10.77;;;;;;;-6.48;64.80;100340.28;5049080;28;20693;-64
2023/12/26 04:46:20;;;;;;;21.73;9.30;;;;;;;-6.48;65.31;100325.03;5059495;28;20950;-63
2023/12/26 04:48:51;;;;;;;18.58;10.10;;;;;;;-6.27;65.19;100335.44;5045353;28;20535;-64
2023/12/26 04:51:22;;;;;;;22.25;10.48;;;;;;;-6.08;65.18;100331.38;5055239;28;20818;-63
2023/12/26 04:53:53;;;;;;;18.50;9.98;;;;;;;-5.90;65.44;100333.06;5045814;28;20114;-64
2023/12/26 04:56:26;;;;;;;19.75;9.77;;;;;;;-6.09;65.05;100327.09;5059641;28;20066;-65
2023/12/26 04:58:57;;;;;;;18.90;9.52;;;;;;;-6.38;65.69;100329.78;5048462;28;20548;-65
2023/12/26 05:01:27;;;;;;;20.65;9.80;;;;;;;-6.61;66.35;100331.13;5059066;28;20068;-64
2023/12/26 05:03:58;;;;;;;20.88;10.43;;;;;;;-6.69;67.19;100330.69;5045118;28;20125;-66
2023/12/26 05:06:28;;;;;;;20.55;9.65;;;;;;;-6.72;67.66;100335.63;5059529;28;20051;-65
2023/12/26 05:08:59;;;;;;;24.40;9.93;;;;;;;-6.63;68.05;100331.03;5048399;28;20048;-64
2023/12/26 05:11:31;;;;;;;19.73;10.70;;;;;;;-6.46;68.40;100338.66;5054038;28;20058;-62
2023/12/26 05:14:02;;;;;;;17.52;9.85;;;;;;;-6.37;68.27;100344.25;5048897;28;20488;-62
2023/12/26 05:16:32;;;;;;;20.08;9.63;;;;;;;-6.35;68.09;100343.53;5044484;28;20818;-62
2023/12/26 05:19:03;;;;;;;15.52;9.10;;;;;;;-6.44;67.65;100342.16;5039787;28;20143;-64
2023/12/26 05:21:34;;;;;;;24.95;9.98;;;;;;;-6.53;68.18;100343.44;5032368;28;20134;-63
2023/12/26 05:24:05;;;;;;;16.80;8.80;;;;;;;-6.62;68.40;100337.84;5039157;28;20049;-65
2023/12/26 05:26:42;;;;;;;21.73;10.30;;;;;;;-6.67;68.65;100333.31;5029406;28;20052;-63
2023/12/26 05:29:13;;;;;;;21.10;10.32;;;;;;;-6.81;68.59;100335.13;5030261;28;20071;-64
2023/12/26 05:31:43;;;;;;;25.67;10.48;;;;;;;-6.86;68.84;100346.69;5023148;28;20099;-62
2023/12/26 05:34:15;;;;;;;23.38;10.02;;;;;;;-6.97;69.28;100344.44;5038791;28;20063;-65
2023/12/26 05:36:45;;;;;;;22.23;9.98;;;;;;;-6.97;69.55;100349.53;5028831;28;20848;-64
2023/12/26 05:39:16;;;;;;;21.42;10.07;;;;;;;-6.91;69.63;100348.09;5039597;28;20106;-65
2023/12/26 05:41:48;;;;;;;26.25;11.90;;;;;;;-6.99;69.67;100340.97;5029852;28;20052;-63
2023/12/26 05:44:18;;;;;;;23.67;11.32;;;;;;;-6.96;69.81;100341.13;5039006;28;20052;-65
2023/12/26 05:46:49;;;;;;;192.25;69.65;;;;;;;-6.95;69.92;100347.94;5028889;28;20056;-60
2023/12/26 05:49:19;;;;;;;375.38;124.57;;;;;;;-6.97;70.03;100349.53;5038534;28;20044;-65
2023/12/26 05:51:50;;;;;;;660.60;278.85;;;;;;;-7.05;70.08;100350.78;5028610;28;20060;-64
2023/12/26 05:54:21;;;;;;;374.13;147.60;;;;;;;-7.10;70.15;100352.19;5039488;28;20072;-63
2023/12/26 05:56:53;;;;;;;104.85;46.28;;;;;;;-7.22;70.09;100351.50;5030161;28;20059;-65
2023/12/26 05:59:23;;;;;;;31.15;14.30;;;;;;;-7.33;70.20;100350.03;5040032;28;20048;-65
2023/12/26 06:01:54;;;;;;;25.83;12.70;;;;;;;-7.57;70.34;100352.91;5030325;28;20072;-63
2023/12/26 06:04:24;;;;;;;26.20;12.60;;;;;;;-7.73;70.78;100365.53;5039312;28;20087;-66
2023/12/26 06:06:55;;;;;;;25.27;12.13;;;;;;;-7.78;71.31;100366.91;5027339;28;20072;-64
2023/12/26 06:09:26;;;;;;;24.85;12.02;;;;;;;-7.86;71.90;100369.88;5038433;28;20071;-62
2023/12/26 06:11:58;;;;;;;23.10;12.18;;;;;;;-7.85;72.13;100366.53;5026797;28;20056;-65
2023/12/26 06:14:29;;;;;;;21.55;11.10;;;;;;;-7.83;72.75;100369.19;5038990;28;20500;-65
2023/12/26 06:17:00;;;;;;;30.83;12.38;;;;;;;-7.86;72.69;100357.19;5047569;28;20143;-64
2023/12/26 06:19:31;;;;;;;25.77;11.23;;;;;;;-7.87;72.56;100363.03;5061797;28;20489;-63
2023/12/26 06:22:02;;;;;;;23.05;11.65;;;;;;;-7.96;72.33;100372.66;5032178;28;20382;-67
2023/12/26 06:24:32;;;;;;;29.52;12.10;;;;;;;-7.99;72.53;100371.59;5041348;28;20052;-65
2023/12/26 06:27:05;;;;;;;29.42;13.00;;;;;;;-8.04;72.69;100368.78;5041424;28;20155;-65
2023/12/26 06:29:35;;;;;;;30.23;12.57;;;;;;;-8.09;72.69;100375.22;5031369;28;20052;-66
2023/12/26 06:32:06;;;;;;;23.52;11.30;;;;;;;-8.16;72.82;100375.66;5042887;28;20053;-65
2023/12/26 06:34:37;;;;;;;28.05;12.95;;;;;;;-8.29;72.91;100377.44;5052707;28;20789;-64
2023/12/26 06:37:07;;;;;;;34.70;16.67;;;;;;;-8.26;73.51;100376.78;5062201;28;20059;-64
2023/12/26 06:39:39;;;;;;;30.58;15.27;;;;;;;-8.25;73.79;100384.47;5051894;28;20594;-64
2023/12/26 06:42:11;;;;;;;33.55;15.77;;;;;;;-8.29;73.86;100387.59;5061958;28;20075;-65
2023/12/26 06:44:42;;;;;;;28.40;13.77;;;;;;;-8.36;74.48;100377.88;5048132;28;20049;-63
2023/12/26 06:47:14;;;;;;;37.80;13.43;;;;;;;-8.42;74.88;100385.13;5061064;28;20048;-63
2023/12/26 06:49:46;;;;;;;37.38;15.02;;;;;;;-8.61;74.97;100367.94;5049982;28;20056;-61
2023/12/26 06:52:19;;;;;;;45.53;17.88;;;;;;;-8.61;75.53;100382.25;5061637;28;20044;-64
2023/12/26 06:54:50;;;;;;;36.60;15.02;;;;;;;-8.63;76.27;100383.84;5051149;28;20391;-66
2023/12/26 06:57:22;;;;;;;32.42;12.75;;;;;;;-8.94;76.81;100352.38;5061761;28;20109;-66
2023/12/26 06:59:53;;;;;;;29.27;11.95;;;;;;;-8.60;77.28;100399.22;5051562;28;20166;-67
2023/12/26 07:02:23;;;;;;;26.55;11.75;;;;;;;-8.63;77.22;100393.97;5059244;28;20047;-67
2023/12/26 07:04:54;;;;;;;22.98;12.13;;;;;;;-8.73;77.59;100398.44;5050946;28;20057;-64
2023/12/26 07:07:24;;;;;;;67.55;23.88;;;;;;;-8.78;78.13;100404.88;5061427;28;20082;-67
2023/12/26 07:09:55;;;;;;;56.53;23.42;;;;;;;-8.89;78.25;100405.84;5050342;28;20772;-64
2023/12/26 07:12:27;;;;;;;42.67;17.55;;;;;;;-8.91;78.78;100407.41;5057376;28;20052;-63
2023/12/26 07:14:57;;;;;;;27.00;14.30;;;;;;;-8.82;79.56;100408.00;5048837;28;20062;-64
2023/12/26 07:17:28;;;;;;;20.02;11.13;;;;;;;-8.77;79.69;100411.69;5061089;28;20055;-65
2023/12/26 07:19:59;;;;;;;23.70;11.95;;;;;;;-8.89;79.65;100395.72;5051140;28;20063;-66
2023/12/26 07:22:29;;;;;;;24.70;12.70;;;;;;;-8.79;80.09;100402.25;5060891;28;20040;-63
2023/12/26 07:25:00;;;;;;;21.77;11.50;;;;;;;-8.87;80.43;100399.22;5049465;28;20058;-66
2023/12/26 07:27:32;;;;;;;27.73;12.32;;;;;;;-8.91;81.27;100407.41;5060776;28;20052;-65
2023/12/26 07:30:02;;;;;;;31.75;13.07;;;;;;;-8.88;81.97;100402.56;5049846;28;20048;-63
2023/12/26 07:32:33;;;;;;;23.45;11.20;;;;;;;-8.77;82.46;100406.63;5057005;28;21033;-65
2023/12/26 07:35:04;;;;;;;21.10;11.25;;;;;;;-8.77;82.32;100396.50;5060944;28;20433;-63
2023/12/26 07:37:34;;;;;;;28.17;12.45;;;;;;;-8.79;82.67;100398.03;5050369;28;20516;-64
2023/12/26 07:40:05;;;;;;;27.73;11.98;;;;;;;-8.86;82.72;100401.00;5060102;28;20056;-65
2023/12/26 07:42:37;;;;;;;23.67;11.50;;;;;;;-8.91;83.19;100402.34;5050021;28;20055;-66
2023/12/26 07:45:08;;;;;;;28.25;13.02;;;;;;;-8.87;83.87;100401.75;5059537;28;20048;-66
2023/12/26 07:47:38;;;;;;;23.38;12.45;;;;;;;-8.82;83.88;100397.00;5050079;28;20044;-63
2023/12/26 07:50:09;;;;;;;23.58;12.23;;;;;;;-8.83;83.94;100406.25;5060364;28;20082;-65
2023/12/26 07:52:40;;;;;;;26.83;11.68;;;;;;;-8.84;84.22;100399.41;5050190;28;20044;-67
2023/12/26 07:55:11;;;;;;;26.92;12.18;;;;;;;-8.80;84.34;100401.38;5056628;28;20059;-65
2023/12/26 07:57:45;;;;;;;27.88;11.23;;;;;;;-8.76;84.28;100408.41;5046262;28;20502;-64
2023/12/26 08:00:16;;;;;;;22.20;10.23;;;;;;;-8.80;84.22;100411.50;5055926;28;20276;-66
2023/12/26 08:02:47;;;;;;;26.05;11.60;;;;;;;-8.83;84.64;100411.31;5034636;28;20056;-65
2023/12/26 08:05:17;;;;;;;24.40;11.63;;;;;;;-8.88;84.50;100407.63;5059662;28;20131;-65
2023/12/26 08:07:48;;;;;;;25.90;11.50;;;;;;;-8.90;84.36;100409.16;5050325;28;20093;-66
2023/12/26 08:10:19;;;;;;;23.98;12.48;;;;;;;-8.97;84.63;100404.50;5056381;28;20056;-66
2023/12/26 08:12:51;;;;;;;31.00;11.65;;;;;;;-9.02;85.03;100410.91;5045995;28;20058;-65
2023/12/26 08:15:21;;;;;;;28.35;12.45;;;;;;;-9.06;85.33;100411.50;5056176;28;20044;-66
2023/12/26 08:17:52;;;;;;;26.25;13.45;;;;;;;-9.10;85.90;100407.91;5049703;28;20619;-65
2023/12/26 08:20:23;;;;;;;30.02;12.80;;;;;;;-9.15;86.97;100412.66;5059536;28;20056;-66
2023/12/26 08:22:54;;;;;;;25.98;11.38;;;;;;;-9.34;87.66;100394.53;5049948;28;21028;-66
2023/12/26 08:25:25;;;;;;;27.48;12.10;;;;;;;-9.30;88.25;100409.16;5060153;28;20051;-64
2023/12/26 08:27:57;;;;;;;19.38;8.95;;;;;;;-9.36;88.65;100413.78;5049178;28;20135;-64
2023/12/26 08:30:27;;;;;;;22.08;10.55;;;;;;;-9.43;88.81;100411.66;5056167;28;20782;-66
2023/12/26 08:32:58;;;;;;;23.30;10.57;;;;;;;-9.42;89.49;100410.88;5040952;28;20062;-64
2023/12/26 08:35:31;;;;;;;22.02;9.73;;;;;;;-9.38;89.74;100405.25;5059027;28;20048;-66
2023/12/26 08:38:01;;;;;;;17.25;9.30;;;;;;;-9.41;90.05;100407.56;5048898;28;20101;-63
2023/12/26 08:40:32;;;;;;;22.02;9.25;;;;;;;-9.40;90.28;100410.22;5058815;28;20055;-65
2023/12/26 08:43:04;;;;;;;21.35;10.23;;;;;;;-9.38;90.52;100417.91;5048394;28;20384;-65
2023/12/26 08:45:36;;;;;;;23.67;10.80;;;;;;;-9.41;90.45;100413.53;5048423;28;20052;-65
2023/12/26 08:48:07;;;;;;;25.15;11.25;;;;;;;-9.45;90.68;100405.63;5059111;28;20051;-65
2023/12/26 08:50:38;;;;;;;21.05;9.27;;;;;;;-9.47;91.15;100402.13;5048705;28;20714;-63
2023/12/26 08:53:08;;;;;;;18.67;10.00;;;;;;;-9.43;91.46;100409.13;5058833;28;20123;-66
2023/12/26 08:55:39;;;;;;;20.75;10.20;;;;;;;-9.48;91.41;100402.88;5048317;28;20062;-64
2023/12/26 08:58:11;;;;;;;26.35;10.57;;;;;;;-9.42;91.54;100410.88;5055972;28;20074;-66
2023/12/26 09:00:42;;;;;;;20.70;10.15;;;;;;;-9.51;91.86;100402.69;5049526;28;20062;-66
2023/12/26 09:03:13;;;;;;;21.77;10.88;;;;;;;-9.57;91.75;100406.56;5059247;28;20047;-63
2023/12/26 09:05:44;;;;;;;24.25;10.85;;;;;;;-9.64;91.83;100409.47;5044793;28;20134;-63
2023/12/26 09:08:14;;;;;;;24.60;11.27;;;;;;;-9.67;91.80;100409.25;5058128;28;20135;-65
2023/12/26 09:10:45;;;;;;;26.85;12.02;;;;;;;-9.66;92.28;100400.00;5047045;28;20048;-64
2023/12/26 09:13:20;;;;;;;20.08;10.32;;;;;;;-9.60;92.36;100405.50;5054821;28;20811;-63
2023/12/26 09:15:51;;;;;;;20.75;9.77;;;;;;;-9.59;92.17;100403.06;5045896;28;20052;-64
2023/12/26 09:18:21;;;;;;;27.35;11.07;;;;;;;-9.58;92.24;100403.94;5055194;28;20127;-65
2023/12/26 09:20:52;;;;;;;23.13;10.65;;;;;;;-9.51;92.26;100405.22;5045103;28;25242;-63
2023/12/26 09:23:23;;;;;;;21.00;10.48;;;;;;;-9.39;92.23;100416.13;5058641;28;20040;-66
2023/12/26 09:25:53;;;;;;;22.95;10.95;;;;;;;-9.35;92.08;100415.56;5049040;28;22129;-64
2023/12/26 09:28:25;;;;;;;23.20;11.32;;;;;;;-9.39;91.66;100416.13;5058259;28;20046;-66
2023/12/26 09:30:56;;;;;;;23.08;10.88;;;;;;;-9.40;91.55;100414.41;5047357;28;20058;-63
2023/12/26 09:33:27;;;;;;;23.33;11.30;;;;;;;-9.59;91.09;100395.47;5059302;28;20163;-64
2023/12/26 09:35:57;;;;;;;25.27;11.93;;;;;;;-9.44;91.12;100423.41;5036035;28;20116;-66
2023/12/26 09:38:28;;;;;;;19.73;10.77;;;;;;;-9.45;90.80;100421.69;5055255;28;20124;-66
2023/12/26 09:40:58;;;;;;;31.58;12.75;;;;;;;-9.46;90.62;100419.03;5047739;28;20072;-67
2023/12/26 09:43:31;;;;;;;25.40;13.20;;;;;;;-9.52;89.96;100418.66;5058123;28;20472;-66
2023/12/26 09:46:03;;;;;;;31.63;12.38;;;;;;;-9.60;89.63;100411.44;5044377;28;20062;-66
2023/12/26 09:48:34;;;;;;;25.40;12.70;;;;;;;-9.64;89.39;100414.50;5050682;28;20455;-66
2023/12/26 09:51:06;;;;;;;25.42;12.35;;;;;;;-9.70;89.09;100403.13;5055880;28;20052;-65
2023/12/26 09:53:42;;;;;;;29.85;12.57;;;;;;;-9.80;88.83;100412.63;5047240;28;20055;-63
2023/12/26 09:56:13;;;;;;;25.33;11.90;;;;;;;-9.92;88.29;100405.88;5058151;28;20056;-63
2023/12/26 09:58:45;;;;;;;28.33;12.18;;;;;;;-9.96;88.20;100403.91;5048548;28;20147;-65
2023/12/26 10:01:16;;;;;;;28.25;12.60;;;;;;;-10.14;87.53;100414.53;5058155;28;20055;-65
2023/12/26 10:03:47;;;;;;;26.73;12.18;;;;;;;-10.30;87.42;100411.78;5047936;28;20060;-66
2023/12/26 10:06:18;;;;;;;24.63;11.57;;;;;;;-10.50;87.23;100413.78;5057985;28;20036;-64
2023/12/26 10:08:48;;;;;;;27.33;13.63;;;;;;;-10.73;86.97;100413.81;5048211;28;20054;-65
2023/12/26 10:11:20;;;;;;;28.27;13.88;;;;;;;-10.71;87.95;100414.81;5058266;28;20056;-65
2023/12/26 10:13:53;;;;;;;24.17;12.88;;;;;;;-10.73;88.09;100416.34;5048050;28;20062;-64
2023/12/26 10:16:24;;;;;;;30.13;16.38;;;;;;;-10.78;87.84;100417.66;5054634;28;20459;-65
2023/12/26 10:18:54;;;;;;;21.38;11.65;;;;;;;-10.94;87.45;100423.28;5047535;28;20048;-65
2023/12/26 10:21:25;;;;;;;32.72;13.68;;;;;;;-11.09;87.69;100405.41;5058702;28;20056;-67
2023/12/26 10:23:58;;;;;;;29.42;12.52;;;;;;;-11.09;87.95;100407.91;5047396;28;20135;-64
2023/12/26 10:26:28;;;;;;;30.88;12.43;;;;;;;-11.00;88.98;100408.59;5057957;28;20055;-63
2023/12/26 10:29:00;;;;;;;54.05;25.65;;;;;;;-10.93;89.06;100408.25;5047849;28;20058;-67
2023/12/26 10:31:31;;;;;;;54.45;27.55;;;;;;;-10.96;88.92;100405.50;5057532;28;20055;-65
2023/12/26 10:34:16;;;;;;;49.42;26.23;;;;;;;-10.96;88.55;100410.53;5043376;28;20048;-63
2023/12/26 10:36:47;;;;;;;50.58;25.83;;;;;;;-11.08;87.79;100414.75;5047183;28;20048;-67
2023/12/26 10:39:18;;;;;;;39.90;19.90;;;;;;;-11.14;87.90;100414.28;5057549;28;20048;-63
2023/12/26 10:41:49;;;;;;;28.52;15.05;;;;;;;-11.17;87.90;100424.16;5047202;28;20048;-64
2023/12/26 10:44:25;;;;;;;28.13;14.60;;;;;;;-11.20;88.42;100414.72;5057875;28;20048;-65
2023/12/26 10:46:57;;;;;;;41.45;20.08;;;;;;;-11.13;88.49;100413.50;5046927;28;20047;-63
2023/12/26 10:49:29;;;;;;;63.63;32.03;;;;;;;-11.16;88.29;100410.75;5057685;28;20052;-66
2023/12/26 10:52:07;;;;;;;41.63;20.83;;;;;;;-11.08;88.30;100417.25;5047041;28;20052;-67
2023/12/26 10:54:40;;;;;;;25.30;12.70;;;;;;;-11.17;87.83;100419.97;5046917;28;20075;-65
2023/12/26 10:57:14;;;;;;;27.48;12.50;;;;;;;-11.17;87.98;100424.16;5057068;28;20056;-66
2023/12/26 13:53:37;;;;;;;15.38;8.80;;;;;;;-13.35;86.18;100498.09;5046246;28;20059;-65
2023/12/26 13:56:08;;;;;;;18.23;9.10;;;;;;;-13.23;86.07;100488.16;5046359;28;20822;-65
2023/12/26 13:58:39;;;;;;;18.90;9.65;;;;;;;-13.24;85.34;100484.75;5048100;28;20056;-66
2023/12/26 14:01:10;;;;;;;18.17;9.05;;;;;;;-13.15;85.63;100485.50;5057576;28;20078;-65
2023/12/26 14:03:44;;;;;;;20.10;8.77;;;;;;;-13.17;85.20;100487.03;5047149;28;20060;-66
2023/12/26 14:06:14;;;;;;;15.30;8.55;;;;;;;-13.19;85.31;100491.03;5057533;28;20071;-66
2023/12/26 14:08:45;;;;;;;29.67;12.35;;;;;;;-13.16;85.37;100481.22;5043951;28;20113;-65
2023/12/26 14:11:17;;;;;;;19.48;10.02;;;;;;;-13.16;85.65;100481.22;5057978;28;20138;-66
2023/12/26 14:13:48;;;;;;;16.38;8.05;;;;;;;-13.23;85.61;100457.97;5048254;28;20128;-66
2023/12/26 14:16:55;;;;;;;15.77;8.27;;;;;;;-13.18;85.67;100467.63;5057533;28;20621;-65
2023/12/26 14:20:02;;;;;;;19.08;9.73;;;;;;;-13.05;86.36;100475.44;5057870;28;20441;-66
2023/12/26 14:23:09;;;;;;;18.90;8.77;;;;;;;-12.92;86.63;100464.72;5048797;28;20527;-65
2023/12/26 14:26:16;;;;;;;17.42;8.38;;;;;;;-12.84;86.59;100461.16;5047861;28;20043;-65